Sac City, IA

3:31 AM CST on December 08, 2016 (GMT -0600)
Lake City | | Change Station

Elev 1191 ft 42.30 °N, 94.75 °W | Updated 12 seconds ago

Clear
Clear
10.4 °F
Feels Like -4 °F
N
10.7
Wind Variable Wind from West
Gusts 17.4 mph

Today
High -- | Low -- °F
--% Chance of Precip.
Yesterday
High -- | Low -- °F
Precip. -- in
Pressure 30.36 in
Visibility 10.0 miles
Clouds Mostly Cloudy 1800 ft
Windchill -4 °F
Dew Point -23 °F
Humidity 20%
Rainfall 0.00 in
Snow Depth Not available.
7:37 AM 4:47 PM
First Quarter, 61% visible
METAR KSLB 080855Z AUTO 29021G26KT 10SM BKN018 M13/M16 A3036 RMK AO2
Pressure 30.36 in
Visibility 10.0 miles
Clouds Mostly Cloudy 1800 ft
Windchill -4 °F
Dew Point -23 °F
Humidity 20%
Rainfall 0.00 in
Snow Depth Not available.
7:37 AM 4:47 PM
First Quarter, 61% visible
METAR KSLB 080855Z AUTO 29021G26KT 10SM BKN018 M13/M16 A3036 RMK AO2

10-Day Weather Forecast

Almanac

Astronomy

Dec. 08, 2016 Rise Set
Actual Time
Civil Twilight
Nautical Twilight
Astronomical Twilight
Moon
Length of Visible Light
Length of Day
Tomorrow will be .
, % of the Moon is Illuminated

Today's Extremes

State Highs State Lows

Community

WunderPhotos

Upload Photos

1,956,259 photos uploaded!

WunderBlog® & News

Nearby

Air Quality

  Air Quality AQ Index Pollutant
Not available.

Snow Depth

Station Depth Elevation

Earthquake Activity

City Distance Mag. Time & Date
Minimum magnitude displayed is 2.5.

Coastal Water Temperatures

Place Temperature

Stations

Nearby Weather Stations

Station Location Temp. Windchill Dew Point Humidity Wind Precip. Elev Updated Type
                   

Watches & Warnings

There are currently no watches in effect.